createdAt,value
2023-05-13T00:12:26.973Z,93.95
2023-05-13T00:14:53.578Z,95.14
2023-05-13T00:17:20.214Z,95.09
2023-05-13T00:19:46.817Z,95.54
2023-05-13T00:22:13.539Z,95.50
2023-05-13T00:24:40.073Z,95.19
2023-05-13T00:27:06.721Z,95.56
2023-05-13T00:29:33.329Z,95.52
2023-05-13T00:32:00.005Z,95.57
2023-05-13T00:34:26.709Z,95.45
2023-05-13T00:36:54.844Z,95.43
2023-05-13T00:39:21.485Z,95.78
2023-05-13T00:41:48.070Z,96.16
2023-05-13T00:44:14.892Z,96.37
2023-05-13T00:46:41.853Z,96.76
2023-05-13T00:49:09.062Z,96.84
2023-05-13T00:51:36.661Z,96.47
2023-05-13T00:54:05.930Z,96.52
2023-05-13T00:56:32.724Z,96.50
2023-05-13T00:59:00.798Z,96.59
2023-05-13T01:02:01.214Z,96.44
2023-05-13T01:04:35.948Z,96.66
2023-05-13T01:07:20.721Z,96.69
2023-05-13T01:10:27.786Z,96.91
2023-05-13T01:13:01.514Z,96.89
2023-05-13T01:15:29.369Z,96.91
2023-05-13T01:18:16.008Z,96.83
2023-05-13T01:20:43.807Z,96.62
2023-05-13T01:23:13.352Z,96.68
2023-05-13T01:25:40.515Z,96.71
2023-05-13T01:28:09.033Z,96.61
2023-05-13T01:30:36.698Z,96.63
2023-05-13T01:33:03.926Z,96.63
2023-05-13T01:35:32.217Z,96.56
2023-05-13T01:38:00.217Z,96.61
2023-05-13T01:40:32.867Z,96.43
2023-05-13T01:43:00.810Z,96.71
2023-05-13T01:45:30.930Z,96.78
2023-05-13T01:47:57.577Z,96.85
2023-05-13T01:50:24.536Z,96.83
2023-05-13T01:52:51.552Z,96.83
2023-05-13T01:55:19.562Z,96.83
2023-05-13T01:57:46.638Z,96.61
2023-05-13T02:00:13.891Z,96.46
2023-05-13T02:02:40.545Z,96.31
2023-05-13T02:05:07.535Z,96.48
2023-05-13T02:07:34.431Z,96.47
2023-05-13T02:10:01.225Z,96.52
2023-05-13T02:12:27.862Z,96.46
2023-05-13T02:14:55.365Z,96.36
2023-05-13T02:17:23.885Z,95.97
2023-05-13T02:19:50.573Z,96.06
2023-05-13T02:22:17.300Z,96.43
2023-05-13T02:24:44.131Z,96.45
2023-05-13T02:27:12.984Z,96.79
2023-05-13T02:29:39.814Z,96.34
2023-05-13T02:32:08.099Z,96.71
2023-05-13T02:34:34.870Z,96.60
2023-05-13T02:37:01.429Z,96.42
2023-05-13T02:39:28.060Z,96.06
2023-05-13T02:41:54.615Z,96.49
2023-05-13T02:44:21.177Z,96.57
2023-05-13T02:46:47.742Z,96.65
2023-05-13T02:49:14.361Z,96.80
2023-05-13T02:51:41.022Z,97.13
2023-05-13T02:54:07.750Z,97.10
2023-05-13T02:56:34.364Z,96.91
2023-05-13T02:59:01.072Z,96.77
2023-05-13T03:01:27.755Z,97.03
2023-05-13T03:03:54.457Z,96.94
2023-05-13T03:06:21.311Z,96.89
2023-05-13T03:08:47.905Z,96.66
2023-05-13T03:11:14.512Z,96.81
2023-05-13T03:13:41.118Z,96.84
2023-05-13T03:16:07.894Z,96.72
2023-05-13T03:18:36.073Z,97.13
2023-05-13T03:21:03.140Z,97.26
2023-05-13T03:23:29.728Z,97.18
2023-05-13T03:25:56.338Z,97.12
2023-05-13T03:28:23.201Z,96.86
2023-05-13T03:30:49.841Z,96.71
2023-05-13T03:33:16.519Z,96.55
2023-05-13T03:35:43.134Z,96.45
2023-05-13T03:38:09.725Z,96.35
2023-05-13T03:40:36.273Z,96.19
2023-05-13T03:43:02.864Z,96.37
2023-05-13T03:45:29.402Z,96.38
2023-05-13T03:48:09.780Z,96.22
2023-05-13T03:50:36.433Z,96.00
2023-05-13T03:53:03.827Z,96.03
2023-05-13T03:55:30.546Z,96.07
2023-05-13T03:57:57.117Z,96.12
2023-05-13T04:00:24.018Z,96.26
2023-05-13T04:02:50.875Z,96.03
2023-05-13T04:05:17.849Z,96.10
2023-05-13T04:07:44.514Z,96.11
2023-05-13T04:10:14.584Z,96.38
2023-05-13T04:12:42.146Z,96.29
2023-05-13T04:15:08.929Z,96.33
2023-05-13T04:17:35.543Z,96.31
2023-05-13T04:20:02.212Z,96.46
2023-05-13T04:22:28.846Z,96.32
2023-05-13T04:24:57.265Z,96.53
2023-05-13T04:27:27.356Z,96.72
2023-05-13T04:29:54.013Z,96.51
2023-05-13T04:32:23.592Z,96.45
2023-05-13T04:34:51.265Z,96.27
2023-05-13T04:37:18.006Z,96.20
2023-05-13T04:39:48.158Z,96.08
2023-05-13T04:42:15.450Z,95.90
2023-05-13T04:44:42.238Z,95.88
2023-05-13T04:47:08.924Z,95.75
2023-05-13T04:49:35.996Z,95.79
2023-05-13T04:52:05.237Z,95.49
2023-05-13T04:54:35.523Z,95.25
2023-05-13T04:57:03.636Z,95.34
2023-05-13T04:59:30.385Z,95.19
2023-05-13T05:01:57.114Z,95.01
2023-05-13T05:04:25.321Z,94.76
2023-05-13T05:06:52.420Z,94.71
2023-05-13T05:09:21.796Z,94.83
2023-05-13T05:11:50.536Z,94.78
2023-05-13T05:14:17.460Z,94.31
2023-05-13T05:16:44.040Z,94.34
2023-05-13T05:19:13.761Z,94.66
2023-05-13T05:21:40.385Z,95.03
2023-05-13T05:24:07.207Z,94.54
2023-05-13T05:26:34.017Z,94.47
2023-05-13T05:29:00.636Z,94.33
2023-05-13T05:31:27.764Z,93.89
2023-05-13T05:33:56.604Z,93.88
2023-05-13T05:36:23.605Z,93.27
2023-05-13T05:38:50.200Z,93.24
2023-05-13T05:41:17.128Z,92.99
2023-05-13T05:43:43.776Z,92.93
2023-05-13T05:46:10.632Z,92.18
2023-05-13T05:48:37.247Z,91.92
2023-05-13T05:51:03.979Z,91.72
2023-05-13T05:53:30.711Z,92.27
2023-05-13T05:55:57.390Z,91.68
2023-05-13T05:58:24.106Z,91.04
2023-05-13T06:00:50.839Z,90.87
2023-05-13T06:03:18.815Z,90.11
2023-05-13T06:05:45.558Z,89.73
2023-05-13T06:08:12.160Z,89.75
2023-05-13T06:10:38.852Z,89.72
2023-05-13T06:13:05.578Z,89.50
2023-05-13T06:15:32.485Z,88.24
2023-05-13T06:18:00.635Z,87.28
2023-05-13T06:20:27.290Z,86.08
2023-05-13T06:22:59.645Z,85.91
2023-05-13T06:25:26.566Z,85.12
2023-05-13T06:27:55.439Z,83.25
2023-05-13T06:33:40.294Z,79.80
2023-05-13T06:36:07.596Z,79.07
2023-05-13T06:38:37.068Z,78.89
2023-05-13T06:41:03.790Z,78.99
2023-05-13T06:43:30.482Z,78.39
2023-05-13T06:45:57.326Z,77.43
2023-05-13T06:48:23.950Z,76.57
2023-05-13T06:50:50.592Z,76.45
2023-05-13T06:53:17.742Z,75.41
2023-05-13T06:55:44.553Z,74.58
2023-05-13T06:58:11.296Z,73.75
2023-05-13T07:00:39.441Z,73.17
2023-05-13T07:03:07.255Z,72.58
2023-05-13T07:05:37.528Z,71.34
2023-05-13T07:08:07.094Z,71.51
2023-05-13T07:10:35.720Z,71.90
2023-05-13T07:13:03.103Z,72.76
2023-05-13T07:15:29.850Z,77.64
2023-05-13T07:17:56.530Z,78.63
2023-05-13T07:20:23.729Z,78.10
2023-05-13T07:22:51.271Z,77.52
2023-05-13T07:25:19.748Z,74.58
2023-05-13T07:27:46.554Z,73.47
2023-05-13T07:30:14.024Z,72.10
2023-05-13T07:32:41.154Z,71.25
2023-05-13T07:35:08.479Z,70.80
2023-05-13T07:37:35.048Z,69.54
2023-05-13T07:40:01.680Z,69.30
2023-05-13T07:42:30.083Z,69.51
2023-05-13T07:44:56.740Z,69.27
2023-05-13T07:47:23.626Z,69.61
2023-05-13T07:49:50.670Z,69.48
2023-05-13T07:52:17.410Z,67.33
2023-05-13T07:54:44.073Z,66.31
2023-05-13T07:57:10.628Z,67.31
2023-05-13T07:59:37.229Z,68.27
2023-05-13T08:02:04.937Z,68.76
2023-05-13T08:04:31.596Z,67.40
2023-05-13T08:06:58.286Z,66.43
2023-05-13T08:09:24.958Z,65.65
2023-05-13T08:11:51.588Z,65.59
2023-05-13T08:14:18.170Z,64.81
2023-05-13T08:16:44.903Z,62.57
2023-05-13T08:19:11.772Z,63.54
2023-05-13T08:21:38.728Z,63.53
2023-05-13T08:24:06.190Z,63.51
2023-05-13T08:26:33.968Z,63.41
2023-05-13T08:29:00.725Z,63.95
2023-05-13T08:31:27.410Z,62.91
2023-05-13T08:33:54.460Z,60.69
2023-05-13T08:36:23.005Z,57.75
2023-05-13T08:38:49.542Z,57.89
2023-05-13T08:41:16.853Z,56.60
2023-05-13T08:43:44.199Z,57.44
2023-05-13T08:46:12.126Z,57.73
2023-05-13T08:48:40.978Z,58.07
2023-05-13T08:51:08.804Z,58.31
2023-05-13T08:53:36.139Z,60.27
2023-05-13T08:56:03.409Z,60.25
2023-05-13T08:58:30.107Z,58.67
2023-05-13T09:00:57.401Z,57.90
2023-05-13T09:03:25.778Z,58.51
2023-05-13T09:05:52.888Z,59.14
2023-05-13T09:08:19.569Z,62.14
2023-05-13T09:10:47.014Z,63.80
2023-05-13T09:13:14.469Z,62.77
2023-05-13T09:15:41.651Z,60.77
2023-05-13T09:18:08.449Z,60.25
2023-05-13T09:20:38.480Z,59.18
2023-05-13T09:23:10.697Z,58.35
2023-05-13T09:25:37.873Z,59.43
2023-05-13T09:28:06.551Z,60.46
2023-05-13T09:30:33.154Z,58.16
2023-05-13T09:33:05.122Z,57.46
2023-05-13T09:35:36.684Z,56.28
2023-05-13T09:38:13.725Z,56.76
2023-05-13T09:40:41.478Z,56.46
2023-05-13T09:43:08.719Z,55.72
2023-05-13T09:45:36.349Z,56.00
2023-05-13T09:48:08.329Z,55.76
2023-05-13T09:50:35.020Z,55.83
2023-05-13T09:53:12.278Z,56.74
2023-05-13T09:55:39.133Z,56.87
2023-05-13T09:58:11.412Z,56.74
2023-05-13T10:00:40.689Z,56.15
2023-05-13T10:03:08.524Z,54.41
2023-05-13T10:05:35.328Z,53.39
2023-05-13T10:08:03.088Z,53.24
2023-05-13T10:10:34.254Z,54.05
2023-05-13T10:13:06.904Z,54.22
2023-05-13T10:15:34.827Z,53.07
2023-05-13T10:18:01.943Z,53.73
2023-05-13T10:20:28.836Z,52.74
2023-05-13T10:22:56.751Z,51.69
2023-05-13T10:25:24.389Z,51.99
2023-05-13T10:27:54.063Z,53.29
2023-05-13T10:30:26.478Z,54.30
2023-05-13T10:32:54.684Z,54.63
2023-05-13T10:35:23.524Z,55.31
2023-05-13T10:38:14.967Z,58.21
2023-05-13T10:41:19.351Z,58.31
2023-05-13T10:43:46.333Z,56.97
2023-05-13T10:46:13.807Z,57.64
2023-05-13T10:48:41.884Z,56.23
2023-05-13T10:51:10.019Z,55.62
2023-05-13T10:53:44.583Z,49.30
2023-05-13T10:56:12.196Z,48.77
2023-05-13T10:58:39.513Z,47.71
2023-05-13T11:01:31.193Z,47.85
2023-05-13T11:04:03.300Z,47.10
2023-05-13T11:06:38.030Z,46.29
2023-05-13T11:09:18.940Z,46.93
2023-05-13T11:11:56.896Z,46.91
2023-05-13T11:14:46.774Z,46.35
2023-05-13T11:17:14.319Z,46.77
2023-05-13T11:19:50.052Z,47.57
2023-05-13T11:22:21.357Z,48.65
2023-05-13T11:25:10.940Z,49.30
2023-05-13T11:27:42.428Z,54.46
2023-05-13T11:30:22.964Z,58.17
2023-05-13T11:32:58.527Z,58.71
2023-05-13T11:35:38.242Z,58.69
2023-05-13T11:38:05.877Z,59.10
2023-05-13T11:40:39.747Z,59.57
2023-05-13T11:43:06.780Z,59.48
2023-05-13T11:45:40.313Z,59.40
2023-05-13T11:48:24.307Z,59.07
2023-05-13T11:50:52.129Z,58.35
2023-05-13T11:53:22.725Z,58.94
2023-05-13T11:55:49.984Z,57.46
2023-05-13T11:58:16.767Z,57.46
2023-05-13T12:00:46.515Z,58.21
2023-05-13T12:03:16.167Z,57.58
2023-05-13T12:05:45.962Z,57.20
2023-05-13T12:08:12.728Z,57.23
2023-05-13T12:10:43.986Z,56.50
2023-05-13T12:13:11.039Z,56.91
2023-05-13T12:15:37.980Z,55.48
2023-05-13T12:18:04.799Z,54.42
2023-05-13T12:20:33.442Z,54.93
2023-05-13T12:23:01.837Z,54.62
2023-05-13T12:25:39.163Z,55.37
2023-05-13T12:28:13.845Z,53.98
2023-05-13T12:30:43.544Z,53.05
2023-05-13T12:33:14.899Z,52.79
2023-05-13T12:35:41.817Z,52.30
2023-05-13T12:38:08.582Z,51.65
2023-05-13T12:40:35.252Z,51.44
2023-05-13T12:43:03.251Z,51.28
2023-05-13T12:45:31.573Z,50.25
2023-05-13T12:47:59.844Z,50.49
2023-05-13T12:50:27.224Z,49.89
2023-05-13T12:52:55.539Z,50.22
2023-05-13T12:55:22.886Z,49.40
2023-05-13T12:57:56.828Z,48.82
2023-05-13T13:00:24.486Z,49.52
2023-05-13T13:02:52.133Z,50.24
2023-05-13T13:05:18.832Z,51.41
2023-05-13T13:07:45.650Z,50.61
2023-05-13T13:10:12.444Z,51.92
2023-05-13T13:12:39.707Z,57.38
2023-05-13T13:15:10.790Z,57.83
2023-05-13T13:17:38.050Z,53.05
2023-05-13T13:20:07.519Z,57.85
2023-05-13T13:22:37.235Z,52.64
2023-05-13T13:25:07.515Z,52.37
2023-05-13T13:27:35.174Z,51.57
2023-05-13T13:30:02.182Z,50.74
2023-05-13T13:32:28.897Z,45.78
2023-05-13T13:34:56.073Z,48.98
2023-05-13T13:37:22.683Z,50.32
2023-05-13T13:39:49.412Z,53.04
2023-05-13T13:42:15.991Z,48.93
2023-05-13T13:44:42.822Z,47.78
2023-05-13T13:47:10.037Z,46.23
2023-05-13T13:49:36.852Z,45.43
2023-05-13T13:52:03.686Z,44.83
2023-05-13T13:54:33.246Z,42.62
2023-05-13T13:57:00.116Z,41.96
2023-05-13T13:59:26.705Z,42.22
2023-05-13T14:01:55.535Z,43.91
2023-05-13T14:04:27.740Z,42.24
2023-05-13T14:07:00.367Z,42.22
2023-05-13T14:09:26.977Z,43.75
2023-05-13T14:11:53.921Z,43.72
2023-05-13T14:14:21.720Z,42.22
2023-05-13T14:16:48.669Z,41.34
2023-05-13T14:19:15.441Z,43.22
2023-05-13T14:21:42.034Z,45.41
2023-05-13T14:24:08.769Z,50.81
2023-05-13T14:26:35.511Z,53.19
2023-05-13T14:29:02.168Z,54.25
2023-05-13T14:31:28.936Z,57.43
2023-05-13T14:33:55.588Z,58.52
2023-05-13T14:36:23.064Z,57.42
2023-05-13T14:38:49.784Z,57.78
2023-05-13T14:41:20.125Z,58.11
2023-05-13T14:43:47.375Z,57.20
2023-05-13T14:46:18.483Z,57.13
2023-05-13T14:48:45.236Z,57.96
2023-05-13T14:51:12.600Z,58.50
2023-05-13T14:53:39.877Z,59.46
2023-05-13T14:56:07.353Z,59.15
2023-05-13T14:58:33.964Z,59.51
2023-05-13T15:01:00.773Z,58.19
2023-05-13T15:03:27.632Z,56.54
2023-05-13T15:05:54.643Z,55.63
2023-05-13T15:08:21.348Z,53.90
2023-05-13T15:10:48.178Z,53.27
2023-05-13T15:13:14.962Z,52.46
2023-05-13T15:15:41.571Z,52.08
2023-05-13T15:18:08.304Z,51.97
2023-05-13T15:20:35.002Z,52.74
2023-05-13T15:23:01.617Z,51.68
2023-05-13T15:25:28.289Z,51.06
2023-05-13T15:27:55.313Z,51.00
2023-05-13T15:30:22.111Z,51.61
2023-05-13T15:32:48.808Z,51.89
2023-05-13T15:35:17.477Z,51.48
2023-05-13T15:37:44.175Z,50.36
2023-05-13T15:40:13.700Z,51.18
2023-05-13T15:42:43.687Z,51.22
2023-05-13T15:45:10.447Z,52.82
2023-05-13T15:47:37.628Z,53.95
2023-05-13T15:50:05.112Z,55.08
2023-05-13T15:52:31.808Z,55.99
2023-05-13T15:54:59.185Z,57.09
2023-05-13T15:57:25.934Z,58.35
2023-05-13T15:59:52.663Z,58.50
2023-05-13T16:02:19.290Z,59.38
2023-05-13T16:04:47.429Z,60.95
2023-05-13T16:07:35.281Z,61.64
2023-05-13T16:10:01.982Z,62.37
2023-05-13T16:12:30.064Z,62.39
2023-05-13T16:14:57.500Z,61.98
2023-05-13T16:17:24.262Z,63.59
2023-05-13T16:19:51.064Z,62.62
2023-05-13T16:22:32.866Z,62.57
2023-05-13T16:25:01.922Z,61.23
2023-05-13T16:27:29.496Z,60.74
2023-05-13T16:29:56.647Z,59.84
2023-05-13T16:32:23.453Z,60.38
2023-05-13T16:34:50.103Z,60.29
2023-05-13T16:37:17.068Z,61.09
2023-05-13T16:39:44.886Z,61.30
2023-05-13T16:42:11.689Z,61.74
2023-05-13T16:44:38.547Z,62.59
2023-05-13T16:47:11.093Z,62.57
2023-05-13T16:49:37.789Z,62.12
2023-05-13T16:52:05.723Z,61.64
2023-05-13T16:54:33.258Z,61.58
2023-05-13T16:57:00.385Z,62.07
2023-05-13T16:59:28.040Z,61.92
2023-05-13T17:01:54.927Z,61.77
2023-05-13T17:04:21.609Z,61.74
2023-05-13T17:06:48.243Z,61.49
2023-05-13T17:09:14.881Z,61.26
2023-05-13T17:11:41.503Z,60.34
2023-05-13T17:14:08.264Z,60.06
2023-05-13T17:16:34.922Z,59.84
2023-05-13T17:19:01.703Z,60.30
2023-05-13T17:21:28.501Z,60.58
2023-05-13T17:23:55.255Z,60.44
2023-05-13T17:26:22.228Z,60.16
2023-05-13T17:28:49.777Z,61.06
2023-05-13T17:31:19.070Z,61.46
2023-05-13T17:33:46.034Z,60.82
2023-05-13T17:36:25.861Z,60.33
2023-05-13T17:39:08.276Z,59.86
2023-05-13T17:41:50.544Z,59.61
2023-05-13T17:44:24.201Z,60.08
2023-05-13T17:46:51.074Z,60.06
2023-05-13T17:49:18.109Z,60.00
2023-05-13T17:51:44.990Z,59.67
2023-05-13T18:12:03.480Z,59.29
2023-05-13T18:14:32.436Z,59.71
2023-05-13T18:17:00.118Z,59.54
2023-05-13T18:19:26.772Z,60.80
2023-05-13T18:21:53.584Z,66.59
2023-05-13T18:24:20.379Z,70.19
2023-05-13T18:26:47.081Z,71.18
2023-05-13T18:29:13.789Z,72.05
2023-05-13T18:31:40.609Z,71.92
2023-05-13T18:34:07.245Z,72.20
2023-05-13T18:36:33.926Z,72.53
2023-05-13T18:39:01.399Z,72.70
2023-05-13T18:41:27.958Z,72.22
2023-05-13T18:43:54.623Z,72.68
2023-05-13T18:46:21.639Z,72.25
2023-05-13T18:48:48.360Z,72.56
2023-05-13T18:51:16.543Z,72.49
2023-05-13T18:53:43.479Z,72.69
2023-05-13T18:56:11.535Z,73.01
2023-05-13T18:58:38.305Z,73.59
2023-05-13T19:01:05.221Z,74.39
2023-05-13T19:03:32.902Z,74.46
2023-05-13T19:06:03.503Z,74.90
2023-05-13T19:08:30.714Z,75.01
2023-05-13T19:10:57.757Z,75.54
2023-05-13T19:13:30.699Z,75.57
2023-05-13T19:16:03.019Z,75.82
2023-05-13T19:18:29.771Z,76.38
2023-05-13T19:20:56.489Z,76.83
2023-05-13T19:23:24.481Z,76.99
2023-05-13T19:25:51.544Z,77.19
2023-05-13T19:28:19.760Z,77.61
2023-05-13T19:30:46.445Z,78.00
2023-05-13T19:33:15.421Z,78.20
2023-05-13T19:35:43.414Z,78.62
2023-05-13T19:38:10.368Z,78.94
2023-05-13T19:40:37.026Z,79.12
2023-05-13T19:43:06.504Z,79.46
2023-05-13T19:45:33.343Z,79.95
2023-05-13T19:48:00.131Z,80.42
2023-05-13T19:50:27.111Z,80.81
2023-05-13T19:52:56.382Z,81.05
2023-05-13T19:55:23.183Z,81.40
2023-05-13T19:57:53.984Z,81.55
2023-05-13T20:00:21.121Z,81.61
2023-05-13T20:02:48.140Z,81.89
2023-05-13T20:05:14.922Z,82.25
2023-05-13T20:07:41.707Z,82.90
2023-05-13T20:10:09.131Z,83.14
2023-05-13T20:12:36.161Z,83.20
2023-05-13T20:15:03.714Z,83.32
2023-05-13T20:17:30.633Z,83.40
2023-05-13T20:19:57.606Z,83.65
2023-05-13T20:22:24.243Z,83.87
2023-05-13T20:24:51.624Z,83.91
2023-05-13T20:27:18.706Z,83.96
2023-05-13T20:29:47.493Z,84.10
2023-05-13T20:32:24.539Z,84.18
2023-05-13T20:34:52.773Z,84.46
2023-05-13T20:37:23.404Z,84.71
2023-05-13T20:39:54.066Z,84.66
2023-05-13T20:45:04.561Z,84.59
2023-05-13T20:47:31.484Z,85.10
2023-05-13T20:49:58.248Z,85.35
2023-05-13T20:52:28.755Z,85.86
2023-05-13T20:54:55.745Z,86.30
2023-05-13T20:57:22.658Z,86.56
2023-05-13T20:59:50.684Z,86.97
2023-05-13T21:02:18.253Z,87.39
2023-05-13T21:04:45.163Z,87.83
2023-05-13T21:07:12.223Z,87.78
2023-05-13T21:09:39.481Z,88.24
2023-05-13T21:12:10.182Z,87.90
2023-05-13T21:14:36.961Z,88.92
2023-05-13T21:17:04.295Z,89.42
2023-05-13T21:19:30.966Z,89.62
2023-05-13T21:21:58.755Z,89.78
2023-05-13T21:24:25.440Z,89.62
2023-05-13T21:26:52.413Z,89.64
2023-05-13T21:29:19.345Z,89.67
2023-05-13T21:31:46.801Z,89.85
2023-05-13T21:34:13.647Z,89.91
2023-05-13T21:36:41.348Z,89.99
2023-05-13T21:39:09.706Z,90.19
2023-05-13T21:41:36.473Z,90.54
2023-05-13T21:44:03.301Z,90.76
2023-05-13T21:46:30.029Z,90.91
2023-05-13T21:48:56.855Z,90.41
2023-05-13T21:51:23.976Z,90.52
2023-05-13T21:53:50.992Z,90.55
2023-05-13T21:56:21.911Z,90.85
2023-05-13T21:58:49.462Z,91.39
2023-05-13T22:01:16.257Z,90.58
2023-05-13T22:03:42.903Z,91.02
2023-05-13T22:06:09.582Z,91.27
2023-05-13T22:08:36.992Z,91.48
2023-05-13T22:11:03.728Z,91.48
2023-05-13T22:13:30.453Z,91.67
2023-05-13T22:15:58.280Z,91.69
2023-05-13T22:18:25.278Z,92.22
2023-05-13T22:20:52.162Z,92.18
2023-05-13T22:23:19.010Z,92.18
2023-05-13T22:25:45.706Z,92.18
2023-05-13T22:28:12.446Z,92.34
2023-05-13T22:30:39.094Z,91.88
2023-05-13T22:33:05.830Z,91.80
2023-05-13T22:35:36.488Z,91.36
2023-05-13T22:38:06.538Z,91.40
2023-05-13T22:40:33.220Z,91.80
2023-05-13T22:42:59.862Z,91.67
2023-05-13T22:45:26.524Z,91.63
2023-05-13T22:47:53.315Z,91.13
2023-05-13T22:50:20.170Z,91.55
2023-05-13T22:52:46.816Z,92.50
2023-05-13T22:55:13.646Z,92.65
2023-05-13T22:57:40.496Z,92.52
2023-05-13T23:00:07.879Z,92.00
2023-05-13T23:02:34.529Z,91.97
2023-05-13T23:05:01.212Z,92.01
2023-05-13T23:07:27.841Z,92.05
2023-05-13T23:09:54.486Z,92.62
2023-05-13T23:12:21.326Z,92.74
2023-05-13T23:14:47.928Z,92.90
2023-05-13T23:17:14.605Z,92.55
2023-05-13T23:19:41.311Z,92.53
2023-05-13T23:22:07.896Z,92.51
2023-05-13T23:24:34.584Z,92.17
2023-05-13T23:27:01.189Z,91.90
2023-05-13T23:29:27.871Z,92.14
2023-05-13T23:31:55.683Z,92.05
2023-05-13T23:34:22.332Z,91.92
2023-05-13T23:36:49.023Z,91.17
2023-05-13T23:39:15.749Z,91.00
2023-05-13T23:41:43.066Z,91.82
2023-05-13T23:44:09.763Z,91.97
2023-05-13T23:46:36.422Z,91.73
2023-05-13T23:49:03.075Z,91.34
2023-05-13T23:51:31.132Z,91.34
2023-05-13T23:53:57.772Z,91.56
2023-05-13T23:56:24.421Z,91.85
